createdAt,value
2022-08-23T00:00:29.629Z,65.94
2022-08-23T00:02:57.899Z,66.66
2022-08-23T00:05:25.639Z,67.03
2022-08-23T00:07:52.916Z,67.78
2022-08-23T00:10:20.907Z,66.84
2022-08-23T00:12:48.154Z,66.77
2022-08-23T00:15:17.035Z,66.75
2022-08-23T00:17:44.619Z,65.97
2022-08-23T00:20:13.229Z,66.59
2022-08-23T00:22:41.642Z,66.21
2022-08-23T00:25:10.937Z,67.76
2022-08-23T00:27:39.176Z,66.79
2022-08-23T00:30:07.678Z,67.04
2022-08-23T00:32:37.048Z,66.38
2022-08-23T00:35:05.338Z,66.65
2022-08-23T00:37:34.448Z,66.07
2022-08-23T00:40:05.516Z,66.49
2022-08-23T00:42:58.170Z,66.97
2022-08-23T00:45:46.937Z,66.92
2022-08-23T00:48:15.605Z,67.38
2022-08-23T00:50:51.409Z,67.56
2022-08-23T00:53:23.365Z,67.03
2022-08-23T00:55:51.803Z,68.19
2022-08-23T00:58:19.858Z,67.54
2022-08-23T01:00:47.949Z,66.96
2022-08-23T01:03:16.233Z,67.45
2022-08-23T01:05:58.389Z,67.49
2022-08-23T01:08:26.448Z,67.28
2022-08-23T01:10:59.030Z,68.30
2022-08-23T01:13:33.985Z,67.66
2022-08-23T01:16:10.830Z,66.59
2022-08-23T01:18:38.659Z,67.52
2022-08-23T01:21:24.598Z,67.84
2022-08-23T01:23:54.262Z,67.18
2022-08-23T01:26:22.990Z,67.56
2022-08-23T01:28:51.454Z,67.66
2022-08-23T01:31:19.901Z,67.15
2022-08-23T01:33:48.411Z,67.16
2022-08-23T01:36:16.103Z,67.15
2022-08-23T01:38:45.167Z,67.62
2022-08-23T01:41:13.017Z,67.39
2022-08-23T01:43:40.526Z,66.74
2022-08-23T01:46:10.128Z,66.37
2022-08-23T01:48:40.819Z,66.82
2022-08-23T01:51:09.246Z,66.68
2022-08-23T01:53:37.373Z,67.05
2022-08-23T01:56:04.977Z,67.00
2022-08-23T01:58:33.463Z,67.01
2022-08-23T02:01:04.562Z,67.09
2022-08-23T02:03:34.493Z,67.25
2022-08-23T02:06:01.859Z,67.55
2022-08-23T02:08:47.925Z,67.22
2022-08-23T02:11:17.886Z,67.53
2022-08-23T02:13:48.486Z,68.56
2022-08-23T02:16:27.179Z,67.89
2022-08-23T02:18:58.088Z,68.48
2022-08-23T02:21:26.525Z,68.17
2022-08-23T02:23:54.491Z,67.82
2022-08-23T02:26:30.840Z,67.42
2022-08-23T02:28:59.206Z,67.33
2022-08-23T02:31:27.189Z,67.32
2022-08-23T02:33:55.752Z,67.47
2022-08-23T02:36:24.927Z,68.32
2022-08-23T02:38:54.009Z,68.55
2022-08-23T02:41:21.605Z,68.24
2022-08-23T02:43:54.429Z,68.32
2022-08-23T02:46:25.312Z,68.40
2022-08-23T02:48:53.409Z,67.57
2022-08-23T02:51:22.594Z,67.40
2022-08-23T02:53:50.590Z,67.76
2022-08-23T02:56:21.895Z,67.76
2022-08-23T02:58:54.641Z,68.52
2022-08-23T03:01:24.662Z,67.76
2022-08-23T03:03:53.035Z,68.82
2022-08-23T03:06:24.783Z,68.31
2022-08-23T03:08:55.123Z,67.04
2022-08-23T03:11:25.208Z,67.68
2022-08-23T03:13:53.767Z,67.46
2022-08-23T03:16:25.510Z,67.93
2022-08-23T03:18:52.948Z,66.68
2022-08-23T03:21:21.310Z,66.46
2022-08-23T03:23:51.401Z,67.01
2022-08-23T03:26:19.686Z,66.67
2022-08-23T03:28:48.147Z,66.80
2022-08-23T03:31:16.406Z,66.46
2022-08-23T03:33:44.440Z,66.12
2022-08-23T03:36:12.230Z,66.92
2022-08-23T03:38:40.607Z,67.69
2022-08-23T03:41:08.769Z,67.44
2022-08-23T03:43:36.590Z,67.56
2022-08-23T03:46:04.963Z,67.41
2022-08-23T03:48:32.985Z,66.67
2022-08-23T03:51:00.743Z,66.38
2022-08-23T03:53:29.250Z,66.24
2022-08-23T03:55:57.649Z,66.80
2022-08-23T03:58:27.032Z,66.78
2022-08-23T04:00:55.319Z,66.86
2022-08-23T04:03:25.103Z,66.60
2022-08-23T04:05:53.725Z,66.63
2022-08-23T04:08:31.854Z,66.35
2022-08-23T04:11:03.409Z,67.30
2022-08-23T04:13:31.555Z,66.77
2022-08-23T04:16:03.000Z,66.74
2022-08-23T04:18:33.494Z,66.35
2022-08-23T04:21:07.295Z,66.22
2022-08-23T04:23:36.968Z,67.29
2022-08-23T04:26:06.565Z,67.04
2022-08-23T04:28:38.311Z,66.57
2022-08-23T04:31:05.848Z,66.62
2022-08-23T04:33:40.406Z,66.57
2022-08-23T04:36:10.457Z,66.81
2022-08-23T04:38:45.710Z,67.37
2022-08-23T04:41:32.705Z,67.84
2022-08-23T04:44:00.292Z,67.80
2022-08-23T04:46:28.763Z,69.74
2022-08-23T04:48:56.737Z,69.29
2022-08-23T04:51:24.377Z,68.97
2022-08-23T04:53:52.036Z,68.53
2022-08-23T04:56:23.394Z,69.05
2022-08-23T04:58:51.306Z,69.27
2022-08-23T05:01:21.432Z,68.49
2022-08-23T05:03:55.663Z,68.18
2022-08-23T05:06:25.013Z,67.11
2022-08-23T05:08:52.554Z,67.30
2022-08-23T05:11:20.754Z,66.89
2022-08-23T05:13:50.062Z,67.70
2022-08-23T05:16:21.351Z,69.29
2022-08-23T05:18:50.347Z,69.07
2022-08-23T05:21:19.669Z,69.15
2022-08-23T05:24:02.122Z,68.63
2022-08-23T05:26:33.742Z,67.95
2022-08-23T05:29:08.505Z,68.19
2022-08-23T05:31:36.738Z,67.98
2022-08-23T05:34:05.209Z,67.51
2022-08-23T05:36:32.993Z,67.33
2022-08-23T05:39:00.896Z,67.71
2022-08-23T05:41:38.447Z,67.44
2022-08-23T05:44:07.580Z,67.20
2022-08-23T05:46:36.878Z,67.62
2022-08-23T05:49:09.819Z,67.35
2022-08-23T05:51:40.290Z,67.75
2022-08-23T05:54:10.433Z,67.16
2022-08-23T05:56:43.035Z,67.10
2022-08-23T05:59:15.421Z,66.22
2022-08-23T06:01:44.535Z,66.77
2022-08-23T06:04:13.477Z,65.37
2022-08-23T06:06:42.596Z,65.47
2022-08-23T06:09:13.470Z,67.25
2022-08-23T06:11:43.330Z,66.70
2022-08-23T06:14:12.634Z,66.50
2022-08-23T06:16:42.683Z,67.24
2022-08-23T06:19:12.540Z,66.73
2022-08-23T06:21:45.860Z,67.83
2022-08-23T06:24:17.363Z,67.82
2022-08-23T06:26:47.611Z,67.32
2022-08-23T06:29:39.403Z,66.99
2022-08-23T06:32:37.507Z,64.92
2022-08-23T06:35:38.303Z,65.40
2022-08-23T06:38:03.964Z,66.51
2022-08-23T06:40:45.506Z,66.42
2022-08-23T06:43:14.379Z,66.34
2022-08-23T06:45:53.792Z,65.82
2022-08-23T06:48:36.349Z,65.94
2022-08-23T06:51:13.656Z,65.32
2022-08-23T06:53:46.030Z,65.77
2022-08-23T06:56:15.510Z,65.33
2022-08-23T06:58:44.074Z,66.11
2022-08-23T07:01:45.140Z,66.64
2022-08-23T07:04:18.715Z,65.43
2022-08-23T07:06:50.527Z,65.14
2022-08-23T07:09:19.165Z,66.83
2022-08-23T07:11:47.047Z,66.95
2022-08-23T07:14:20.517Z,66.43
2022-08-23T07:17:01.594Z,66.32
2022-08-23T07:19:34.849Z,66.12
2022-08-23T07:22:08.498Z,64.78
2022-08-23T07:24:39.075Z,65.75
2022-08-23T07:27:09.969Z,66.10
2022-08-23T07:29:39.811Z,64.33
2022-08-23T07:32:18.784Z,65.03
2022-08-23T07:34:55.611Z,64.01
2022-08-23T07:37:26.519Z,63.75
2022-08-23T07:40:01.580Z,64.07
2022-08-23T07:42:35.337Z,64.51
2022-08-23T07:45:04.166Z,65.37
2022-08-23T07:47:33.461Z,64.40
2022-08-23T07:50:01.415Z,64.07
2022-08-23T07:52:35.420Z,62.08
2022-08-23T07:55:05.626Z,63.07
2022-08-23T07:57:35.463Z,62.78
2022-08-23T08:00:05.940Z,64.75
2022-08-23T08:02:40.262Z,65.42
2022-08-23T08:05:10.433Z,63.66
2022-08-23T08:07:40.004Z,62.33
2022-08-23T08:10:09.945Z,62.92
2022-08-23T08:12:39.492Z,63.82
2022-08-23T08:15:16.465Z,63.09
2022-08-23T08:17:52.655Z,61.75
2022-08-23T08:20:31.437Z,62.20
2022-08-23T08:23:03.599Z,61.86
2022-08-23T08:25:34.683Z,59.46
2022-08-23T08:28:04.422Z,58.56
2022-08-23T08:30:32.367Z,58.41
2022-08-23T08:33:08.722Z,58.15
2022-08-23T08:35:40.995Z,58.36
2022-08-23T08:38:16.215Z,58.01
2022-08-23T08:40:46.943Z,55.94
2022-08-23T08:43:25.084Z,55.65
2022-08-23T08:45:59.425Z,54.01
2022-08-23T08:48:32.809Z,53.41
2022-08-23T08:51:10.526Z,53.82
2022-08-23T08:53:40.766Z,54.13
2022-08-23T08:56:25.351Z,53.44
2022-08-23T08:59:03.890Z,52.34
2022-08-23T09:01:33.361Z,52.50
2022-08-23T09:04:01.471Z,52.07
2022-08-23T09:06:47.955Z,50.43
2022-08-23T09:09:30.099Z,49.83
2022-08-23T09:12:22.678Z,50.75
2022-08-23T09:14:53.641Z,52.01
2022-08-23T09:17:23.473Z,50.31
2022-08-23T09:19:52.410Z,50.76
2022-08-23T09:22:30.953Z,49.28
2022-08-23T09:24:59.854Z,49.16
2022-08-23T09:27:36.665Z,50.56
2022-08-23T09:30:09.540Z,49.74
2022-08-23T09:35:20.549Z,50.97
2022-08-23T09:37:54.617Z,50.61
2022-08-23T09:40:39.000Z,49.08
2022-08-23T09:43:18.998Z,49.37
2022-08-23T09:45:51.639Z,50.77
2022-08-23T09:48:40.819Z,49.57
2022-08-23T09:51:20.504Z,48.69
2022-08-23T09:56:54.364Z,49.78
2022-08-23T09:59:27.608Z,50.14
2022-08-23T10:01:58.538Z,49.62
2022-08-23T10:04:32.921Z,49.15
2022-08-23T10:07:02.766Z,49.71
2022-08-23T10:09:36.579Z,50.25
2022-08-23T10:14:55.729Z,48.24
2022-08-23T10:17:31.155Z,47.93
2022-08-23T10:20:11.858Z,49.03
2022-08-23T10:22:48.911Z,48.66
2022-08-23T10:25:37.165Z,48.28
2022-08-23T10:28:39.367Z,48.89
2022-08-23T10:31:21.730Z,47.96
2022-08-23T10:33:59.734Z,46.89
2022-08-23T10:36:37.565Z,48.40
2022-08-23T10:39:12.269Z,47.18
2022-08-23T10:41:58.982Z,48.37
2022-08-23T10:44:38.459Z,48.66
2022-08-23T10:47:06.774Z,48.07
2022-08-23T10:49:36.337Z,49.04
2022-08-23T10:52:10.679Z,49.56
2022-08-23T10:55:02.637Z,50.95
2022-08-23T10:57:38.507Z,48.99
2022-08-23T11:00:09.786Z,50.30
2022-08-23T11:02:48.590Z,50.24
2022-08-23T11:05:28.937Z,50.54
2022-08-23T11:07:58.886Z,50.71
2022-08-23T11:10:39.714Z,49.83
2022-08-23T11:13:09.612Z,50.18
2022-08-23T11:15:46.876Z,48.95
2022-08-23T11:18:33.249Z,50.66
2022-08-23T11:21:07.987Z,50.21
2022-08-23T11:23:38.752Z,48.83
2022-08-23T11:26:08.216Z,47.65
2022-08-23T11:28:44.509Z,48.20
2022-08-23T11:31:17.689Z,50.19
2022-08-23T11:33:51.010Z,49.09
2022-08-23T11:36:31.614Z,49.92
2022-08-23T11:39:02.186Z,49.04
2022-08-23T11:41:37.576Z,49.26
2022-08-23T11:44:13.465Z,49.40
2022-08-23T11:46:51.159Z,49.63
2022-08-23T11:49:29.647Z,49.13
2022-08-23T11:52:19.007Z,50.33
2022-08-23T11:55:11.146Z,50.31
2022-08-23T11:57:59.914Z,49.47
2022-08-23T12:00:53.559Z,49.87
2022-08-23T12:03:27.593Z,51.64
2022-08-23T12:11:52.103Z,48.77
2022-08-23T12:14:31.534Z,49.93
2022-08-23T12:17:08.986Z,49.54
2022-08-23T12:19:46.656Z,47.74
2022-08-23T12:22:34.464Z,47.28
2022-08-23T12:25:09.702Z,46.10
2022-08-23T12:27:44.617Z,45.25
2022-08-23T12:30:39.786Z,44.54
2022-08-23T12:33:22.513Z,45.69
2022-08-23T12:35:57.655Z,45.40
2022-08-23T12:38:35.908Z,44.34
2022-08-23T12:41:26.454Z,48.21
2022-08-23T12:44:01.526Z,46.27
2022-08-23T12:46:41.592Z,45.65
2022-08-23T12:49:13.213Z,45.15
2022-08-23T12:51:49.524Z,46.64
2022-08-23T12:54:23.544Z,48.55
2022-08-23T12:56:53.137Z,49.83
2022-08-23T12:59:25.050Z,48.80
2022-08-23T13:01:53.853Z,49.36
2022-08-23T13:04:33.902Z,49.71
2022-08-23T13:07:10.634Z,49.90
2022-08-23T13:12:22.857Z,50.45
2022-08-23T13:14:51.602Z,52.15
2022-08-23T13:17:21.315Z,53.39
2022-08-23T13:19:50.330Z,52.08
2022-08-23T13:22:19.191Z,52.89
2022-08-23T13:27:56.669Z,52.45
2022-08-23T13:30:42.714Z,53.29
2022-08-23T13:33:14.998Z,52.57
2022-08-23T13:35:50.348Z,54.05
2022-08-23T13:38:24.817Z,53.68
2022-08-23T13:40:59.866Z,52.34
2022-08-23T13:43:34.414Z,52.52
2022-08-23T13:46:22.613Z,53.00
2022-08-23T13:49:01.833Z,53.56
2022-08-23T13:51:39.804Z,52.09
2022-08-23T13:54:11.679Z,50.81
2022-08-23T13:56:47.893Z,50.46
2022-08-23T13:59:21.669Z,50.07
2022-08-23T14:01:52.599Z,53.20
2022-08-23T14:04:23.590Z,50.36
2022-08-23T14:06:59.619Z,50.20
2022-08-23T14:09:29.741Z,51.28
2022-08-23T14:12:03.116Z,50.37
2022-08-23T14:14:43.582Z,49.07
2022-08-23T14:17:16.966Z,50.36
2022-08-23T14:20:32.804Z,50.33
2022-08-23T14:22:40.515Z,50.99
2022-08-23T14:25:18.869Z,50.93
2022-08-23T14:27:52.654Z,51.89
2022-08-23T14:30:29.451Z,51.45
2022-08-23T14:33:03.735Z,52.51
2022-08-23T14:35:33.539Z,50.39
2022-08-23T14:38:05.877Z,50.90
2022-08-23T14:40:44.561Z,52.03
2022-08-23T14:43:14.171Z,51.69
2022-08-23T14:45:49.800Z,51.50
2022-08-23T14:48:17.968Z,51.37
2022-08-23T14:50:47.199Z,50.79
2022-08-23T14:53:16.105Z,52.42
2022-08-23T14:55:44.224Z,52.00
2022-08-23T14:58:12.868Z,50.65
2022-08-23T15:00:42.040Z,51.47
2022-08-23T15:03:11.275Z,52.66
2022-08-23T15:05:43.116Z,53.34
2022-08-23T15:08:17.797Z,53.22
2022-08-23T15:11:33.179Z,52.02
2022-08-23T15:13:55.420Z,52.05
2022-08-23T15:16:30.030Z,52.85
2022-08-23T15:19:06.571Z,52.28
2022-08-23T15:21:36.055Z,52.17
2022-08-23T15:24:09.280Z,51.35
2022-08-23T15:26:41.835Z,52.80
2022-08-23T15:29:19.370Z,51.25
2022-08-23T15:31:56.073Z,51.79
2022-08-23T15:34:24.996Z,51.38
2022-08-23T15:36:57.745Z,52.42
2022-08-23T15:39:30.556Z,51.28
2022-08-23T15:42:00.780Z,51.76
2022-08-23T15:44:35.625Z,51.77
2022-08-23T15:47:07.851Z,52.74
2022-08-23T15:49:44.813Z,52.24
2022-08-23T15:52:23.735Z,52.79
2022-08-23T15:54:51.877Z,51.71
2022-08-23T15:57:21.947Z,51.44
2022-08-23T16:00:02.045Z,51.58
2022-08-23T16:03:06.566Z,52.34
2022-08-23T16:05:31.393Z,52.00
2022-08-23T16:07:59.777Z,51.89
2022-08-23T16:10:35.432Z,53.21
2022-08-23T16:13:10.777Z,52.08
2022-08-23T16:15:40.853Z,52.56
2022-08-23T16:18:15.524Z,52.57
2022-08-23T16:20:47.570Z,51.52
2022-08-23T16:26:01.422Z,51.91
2022-08-23T16:28:34.602Z,51.90
2022-08-23T16:33:51.638Z,51.04
2022-08-23T16:36:21.593Z,51.24
2022-08-23T16:38:51.050Z,52.32
2022-08-23T16:41:20.763Z,53.92
2022-08-23T16:43:51.226Z,52.57
2022-08-23T16:46:29.611Z,52.33
2022-08-23T16:49:11.572Z,53.87
2022-08-23T16:51:39.679Z,53.73
2022-08-23T16:54:10.965Z,54.34
2022-08-23T16:56:41.956Z,53.15
2022-08-23T16:59:15.953Z,53.80
2022-08-23T17:01:50.137Z,53.83
2022-08-23T17:04:26.654Z,53.14
2022-08-23T17:07:01.647Z,53.59
2022-08-23T17:09:36.010Z,54.24
2022-08-23T17:12:05.613Z,54.77
2022-08-23T17:14:37.895Z,54.01
2022-08-23T17:17:09.643Z,53.60
2022-08-23T17:19:38.315Z,54.88
2022-08-23T17:22:19.032Z,55.39
2022-08-23T17:29:54.749Z,54.94
2022-08-23T17:32:24.583Z,56.69
2022-08-23T17:34:54.064Z,55.06
2022-08-23T17:37:23.704Z,56.43
2022-08-23T17:39:53.336Z,56.46
2022-08-23T17:42:31.814Z,55.67
2022-08-23T17:45:09.636Z,55.96
2022-08-23T17:47:40.025Z,56.22
2022-08-23T17:50:19.686Z,56.36
2022-08-23T17:55:49.296Z,56.57
2022-08-23T17:58:29.642Z,58.03
2022-08-23T18:01:03.028Z,57.43
2022-08-23T18:03:42.579Z,58.16
2022-08-23T18:06:16.510Z,58.27
2022-08-23T18:08:59.046Z,58.09
2022-08-23T18:11:28.678Z,59.00
2022-08-23T18:14:04.572Z,60.16
2022-08-23T18:19:18.574Z,59.26
2022-08-23T18:21:47.037Z,59.50
2022-08-23T18:27:05.627Z,58.30
2022-08-23T18:29:40.574Z,59.90
2022-08-23T18:40:28.586Z,60.21
2022-08-23T18:43:09.183Z,60.00
2022-08-23T18:45:43.641Z,59.53
2022-08-23T18:48:29.567Z,59.80
2022-08-23T18:51:05.679Z,59.94
2022-08-23T18:53:48.157Z,61.82
2022-08-23T18:56:32.692Z,61.16
2022-08-23T18:59:06.523Z,60.18
2022-08-23T19:01:46.963Z,60.77
2022-08-23T19:04:25.235Z,61.35
2022-08-23T19:07:02.150Z,61.35
2022-08-23T19:09:50.637Z,61.51
2022-08-23T19:15:09.658Z,61.95
2022-08-23T19:17:48.740Z,61.45
2022-08-23T19:20:24.361Z,62.20
2022-08-23T19:23:00.788Z,63.11
2022-08-23T19:25:34.624Z,62.09
2022-08-23T19:28:05.288Z,61.84
2022-08-23T19:36:35.814Z,63.15
2022-08-23T19:39:12.580Z,62.66
2022-08-23T19:41:50.879Z,62.76
2022-08-23T19:44:21.635Z,63.31
2022-08-23T19:46:56.860Z,62.64
2022-08-23T19:49:25.004Z,63.64
2022-08-23T19:52:00.642Z,63.24
2022-08-23T19:54:29.585Z,62.75
2022-08-23T19:57:09.696Z,62.79
2022-08-23T19:59:50.624Z,62.62
2022-08-23T20:02:25.598Z,62.95
2022-08-23T20:04:56.964Z,63.12
2022-08-23T20:07:31.904Z,63.51
2022-08-23T20:10:10.016Z,63.48
2022-08-23T20:15:30.448Z,64.01
2022-08-23T20:18:04.662Z,63.22
2022-08-23T20:20:40.673Z,63.94
2022-08-23T20:23:37.161Z,64.10
2022-08-23T20:28:59.312Z,64.15
2022-08-23T20:34:12.561Z,64.42
2022-08-23T20:36:41.653Z,64.81
2022-08-23T20:39:12.692Z,64.87
2022-08-23T20:41:44.655Z,65.76
2022-08-23T20:49:22.839Z,64.27
2022-08-23T20:51:53.045Z,64.92
2022-08-23T20:54:20.901Z,65.21
2022-08-23T20:56:51.736Z,64.90
2022-08-23T20:59:20.051Z,64.41
2022-08-23T21:01:47.720Z,64.07
2022-08-23T21:04:15.432Z,64.75
2022-08-23T21:09:28.928Z,65.03
2022-08-23T21:11:57.621Z,64.50
2022-08-23T21:14:25.834Z,63.96
2022-08-23T21:16:53.951Z,64.91
2022-08-23T21:19:21.813Z,65.45
2022-08-23T21:21:49.720Z,64.61
2022-08-23T21:24:18.628Z,65.31
2022-08-23T21:26:47.137Z,66.07
2022-08-23T21:29:14.797Z,65.83
2022-08-23T21:31:42.520Z,65.07
2022-08-23T21:34:14.410Z,65.27
2022-08-23T21:36:51.643Z,64.19
2022-08-23T21:39:19.627Z,64.20
2022-08-23T21:41:48.416Z,64.53
2022-08-23T21:44:18.941Z,64.57
2022-08-23T21:46:47.801Z,64.68
2022-08-23T21:49:19.727Z,64.46
2022-08-23T21:51:53.217Z,64.07
2022-08-23T21:54:20.900Z,63.99
2022-08-23T21:56:49.360Z,65.37
2022-08-23T21:59:17.876Z,65.12
2022-08-23T22:01:47.911Z,65.66
2022-08-23T22:04:19.654Z,65.89
2022-08-23T22:06:49.596Z,66.61
2022-08-23T22:09:24.853Z,65.53
2022-08-23T22:11:55.998Z,65.57
2022-08-23T22:14:25.225Z,66.33
2022-08-23T22:16:59.087Z,65.23
2022-08-23T22:19:27.079Z,64.71
2022-08-23T22:21:55.597Z,65.47
2022-08-23T22:24:26.300Z,65.33
2022-08-23T22:26:54.803Z,65.44
2022-08-23T22:29:23.709Z,66.68
2022-08-23T22:31:51.408Z,66.33
2022-08-23T22:34:19.419Z,66.69
2022-08-23T22:36:51.925Z,66.40
2022-08-23T22:39:23.263Z,66.43
2022-08-23T22:41:51.866Z,66.02
2022-08-23T22:44:19.762Z,66.34
2022-08-23T22:46:47.718Z,66.17
2022-08-23T22:49:15.507Z,66.36
2022-08-23T22:51:43.667Z,67.05
2022-08-23T22:54:12.660Z,66.50
2022-08-23T22:56:44.822Z,67.88
2022-08-23T22:59:14.086Z,68.01
2022-08-23T23:01:45.203Z,67.85
2022-08-23T23:04:16.688Z,68.06
2022-08-23T23:06:45.070Z,67.66
2022-08-23T23:09:13.140Z,68.04
2022-08-23T23:11:42.256Z,68.65
2022-08-23T23:14:11.309Z,68.61
2022-08-23T23:16:38.806Z,66.60
2022-08-23T23:19:25.450Z,68.04
2022-08-23T23:21:54.701Z,67.65
2022-08-23T23:24:27.021Z,68.00
2022-08-23T23:26:55.252Z,68.32
2022-08-23T23:29:23.377Z,68.28
2022-08-23T23:31:50.848Z,67.98
2022-08-23T23:34:20.353Z,67.75
2022-08-23T23:36:48.384Z,67.26
2022-08-23T23:39:15.999Z,67.51
2022-08-23T23:41:44.568Z,68.14
2022-08-23T23:44:12.284Z,67.52
2022-08-23T23:46:43.401Z,67.56
2022-08-23T23:49:14.694Z,67.41
2022-08-23T23:51:42.571Z,67.83
2022-08-23T23:54:10.005Z,68.71
2022-08-23T23:56:42.908Z,68.45
2022-08-23T23:59:10.731Z,68.92
